Time;durP1;ratioP1;P1;durP2;ratioP2;P2;SDS_P1;SDS_P2;PMS_P1;PMS_P2;Temp;Humidity;BMP_temperature;BMP_pressure;BME280_temperature;BME280_humidity;BME280_pressure;Samples;Min_cycle;Max_cycle;Signal;HPM_P1;HPM_P2
2021/10/07 00:00:49;;;;;;;;;;;;;;;-144.99;100.00;52507.19;5032485;28;19981;-76
2021/10/07 00:03:15;;;;;;;;;;;;;;;-144.99;100.00;52511.28;5042020;28;19988;-76
2021/10/07 00:05:41;;;;;;;;;;;;;;;-144.99;100.00;52472.56;5033908;28;20001;-75
2021/10/07 00:08:09;;;;;;;;;;;;;;;-144.99;100.00;52509.25;5033151;28;19998;-76
2021/10/07 00:10:35;;;;;;;;;;;;;;;-144.99;100.00;52545.94;5030748;28;19984;-76
2021/10/07 00:13:01;;;;;;;;;;;;;;;-144.99;100.00;52486.81;5030275;28;20428;-76
2021/10/07 00:15:28;;;;;;;;;;;;;;;-144.99;100.00;52486.81;5036052;28;19985;-75
2021/10/07 00:17:55;;;;;;;;;;;;;;;-144.99;100.00;52537.78;5032574;28;19974;-76
2021/10/07 00:20:21;;;;;;;;;;;;;;;-144.99;100.00;52531.66;5044201;28;19977;-76
2021/10/07 00:22:48;;;;;;;;;;;;;;;-144.99;100.00;52537.78;5031454;28;19981;-76
2021/10/07 00:25:16;;;;;;;;;;;;;;;-144.99;100.00;52486.81;5017954;28;19993;-76
2021/10/07 00:27:43;;;;;;;;;;;;;;;-144.99;100.00;52521.47;5026815;28;20518;-76
2021/10/07 00:30:12;;;;;;;;;;;;;;;-144.99;100.00;52541.84;5028018;28;19986;-76
2021/10/07 00:32:44;;;;;;;;;;;;;;;-144.99;100.00;52492.94;5033023;28;19974;-76
2021/10/07 00:35:21;;;;;;;;;;;;;;;-144.99;100.00;52562.25;5026653;28;19977;-76
2021/10/07 00:40:33;;;;;;;;;;;;;;;-144.99;100.00;52521.47;5026577;28;20066;-75
2021/10/07 00:42:59;;;;;;;;;;;;;;;-144.99;100.00;52517.41;5029054;28;19982;-74
2021/10/07 00:45:26;;;;;;;;;;;;;;;-144.99;100.00;52517.41;5026024;28;20317;-76
2021/10/07 00:47:52;;;;;;;;;;;;;;;-144.99;100.00;52527.59;5027068;28;19989;-74
2021/10/07 00:50:18;;;;;;;;;;;;;;;-144.99;100.00;52521.47;5026686;28;19978;-76
2021/10/07 00:52:45;;;;;;;;;;;;;;;-144.99;100.00;52513.31;5034651;28;19989;-76
2021/10/07 00:55:13;;;;;;;;;;;;;;;-144.99;100.00;52547.97;5028524;28;20335;-75
2021/10/07 00:57:41;;;;;;;;;;;;;;;-144.99;100.00;52497.00;5027161;28;20004;-76
2021/10/07 01:00:08;;;;;;;;;;;;;;;-144.99;100.00;52517.41;5027427;28;20460;-76
2021/10/07 01:02:34;;;;;;;;;;;;;;;-144.99;100.00;52513.31;5023025;28;20161;-75
2021/10/07 01:05:01;;;;;;;;;;;;;;;-144.99;100.00;52486.81;5021436;28;19973;-75
2021/10/07 01:07:28;;;;;;;;;;;;;;;-144.99;100.00;52521.47;5024698;28;19989;-76
2021/10/07 01:09:55;;;;;;;;;;;;;;;-144.99;100.00;52533.69;5025916;28;19989;-77
2021/10/07 01:12:21;;;;;;;;;;;;;;;-144.99;100.00;52507.19;5029775;28;20053;-76
2021/10/07 01:14:52;;;;;;;;;;;;;;;-144.99;100.00;52499.06;5026895;28;19996;-77
2021/10/07 01:17:20;;;;;;;;;;;;;;;-144.99;100.00;52492.94;5027645;28;20020;-75
2021/10/07 01:19:47;;;;;;;;;;;;;;;-144.99;100.00;52554.09;5022627;28;19993;-76
2021/10/07 01:22:14;;;;;;;;;;;;;;;-144.99;100.00;52513.31;5027464;28;19985;-75
2021/10/07 01:24:40;;;;;;;;;;;;;;;-144.99;100.00;52570.38;5025537;28;19974;-76
2021/10/07 01:27:07;;;;;;;;;;;;;;;-144.99;100.00;52501.09;5023913;28;19993;-76
2021/10/07 01:29:34;;;;;;;;;;;;;;;-144.99;100.00;52492.94;5024851;28;19960;-76
2021/10/07 01:32:00;;;;;;;;;;;;;;;-144.99;100.00;52488.84;5024008;28;20395;-75
2021/10/07 01:34:27;;;;;;;;;;;;;;;-144.99;100.00;52529.63;5027956;28;19997;-76
2021/10/07 01:36:55;;;;;;;;;;;;;;;-144.99;100.00;52505.16;5025260;28;19977;-76
2021/10/07 01:39:23;;;;;;;;;;;;;;;-144.99;100.00;52525.56;5021368;28;20372;-75
2021/10/07 01:41:51;;;;;;;;;;;;;;;-144.99;100.00;52509.25;5026592;28;19973;-76
2021/10/07 01:44:18;;;;;;;;;;;;;;;-144.99;100.00;52521.47;5021195;28;19985;-76
2021/10/07 01:46:44;;;;;;;;;;;;;;;-144.99;100.00;52533.69;5027821;28;20001;-74
2021/10/07 01:49:11;;;;;;;;;;;;;;;-144.99;100.00;52505.16;5029558;28;20188;-76
2021/10/07 01:51:38;;;;;;;;;;;;;;;-144.99;100.00;52525.56;5021762;28;19981;-74
2021/10/07 01:54:06;;;;;;;;;;;;;;;-144.99;100.00;52550.00;5019714;28;19977;-75
2021/10/07 01:56:32;;;;;;;;;;;;;;;-144.99;100.00;52537.78;5029424;28;19981;-76
2021/10/07 01:58:59;;;;;;;;;;;;;;;-144.99;100.00;52566.31;5028824;28;19990;-75
2021/10/07 02:01:25;;;;;;;;;;;;;;;-144.99;100.00;52497.00;5026228;28;19978;-77
2021/10/07 02:03:52;;;;;;;;;;;;;;;-144.99;100.00;52525.56;5024850;28;20428;-77
2021/10/07 02:06:18;;;;;;;;;;;;;;;-144.99;100.00;52515.34;5028098;28;20340;-75
2021/10/07 02:08:44;;;;;;;;;;;;;;;-144.99;100.00;52543.91;5032033;28;20020;-77
2021/10/07 02:11:12;;;;;;;;;;;;;;;-144.99;100.00;52484.78;5027711;28;20431;-77
2021/10/07 02:13:38;;;;;;;;;;;;;;;-144.99;100.00;52537.78;5024625;28;20020;-77
2021/10/07 02:16:05;;;;;;;;;;;;;;;-144.99;100.00;52507.19;5024856;28;19978;-77
2021/10/07 02:18:32;;;;;;;;;;;;;;;-144.99;100.00;52509.25;5029731;28;19993;-74
2021/10/07 02:20:58;;;;;;;;;;;;;;;-144.99;100.00;52472.56;5028318;28;19988;-77
2021/10/07 02:23:24;;;;;;;;;;;;;;;-144.99;100.00;52499.06;5024616;28;20068;-76
2021/10/07 02:25:50;;;;;;;;;;;;;;;-144.99;100.00;52525.56;5021498;28;19986;-77
2021/10/07 02:28:18;;;;;;;;;;;;;;;-144.99;100.00;52476.63;5023127;28;20052;-75
2021/10/07 02:30:45;;;;;;;;;;;;;;;-144.99;100.00;52513.31;5024225;28;19973;-75
2021/10/07 02:33:11;;;;;;;;;;;;;;;-144.99;100.00;52525.56;5027600;28;20069;-76
2021/10/07 02:35:37;;;;;;;;;;;;;;;-144.99;100.00;52513.31;5025303;28;19980;-77
2021/10/07 02:38:04;;;;;;;;;;;;;;;-144.99;100.00;52521.47;5025306;28;20424;-74
2021/10/07 02:40:31;;;;;;;;;;;;;;;-144.99;100.00;52521.47;5023825;28;20379;-74
2021/10/07 02:42:58;;;;;;;;;;;;;;;-144.99;100.00;52517.41;5028114;28;19978;-74
2021/10/07 02:45:26;;;;;;;;;;;;;;;-144.99;100.00;52533.69;5022390;28;20316;-76
2021/10/07 02:47:53;;;;;;;;;;;;;;;-144.99;100.00;52511.28;5020923;28;20067;-72
2021/10/07 02:50:20;;;;;;;;;;;;;;;-144.99;100.00;52492.94;5021592;28;20031;-77
2021/10/07 02:52:46;;;;;;;;;;;;;;;-144.99;100.00;52521.47;5024438;28;19981;-76
2021/10/07 02:55:13;;;;;;;;;;;;;;;-144.99;100.00;52501.09;5025649;28;19974;-76
2021/10/07 02:57:41;;;;;;;;;;;;;;;-144.99;100.00;52525.56;5026838;28;19986;-76
2021/10/07 03:00:08;;;;;;;;;;;;;;;-144.99;100.00;52513.31;5025452;28;20382;-75
2021/10/07 03:02:36;;;;;;;;;;;;;;;-144.99;100.00;52478.66;5023123;28;19981;-76
2021/10/07 03:05:02;;;;;;;;;;;;;;;-144.99;100.00;52525.56;5023394;28;19981;-77
2021/10/07 03:07:29;;;;;;;;;;;;;;;-144.99;100.00;52521.47;5027175;28;19997;-74
2021/10/07 03:09:55;;;;;;;;;;;;;;;-144.99;100.00;52509.25;5029908;28;20065;-73
2021/10/07 03:12:21;;;;;;;;;;;;;;;-144.99;100.00;52545.94;5030027;28;19982;-74
2021/10/07 03:14:48;;;;;;;;;;;;;;;-144.99;100.00;52521.47;5026846;28;19984;-74
2021/10/07 03:17:14;;;;;;;;;;;;;;;-144.99;100.00;52499.06;5031897;28;19978;-75
2021/10/07 03:19:42;;;;;;;;;;;;;;;-144.99;100.00;52476.63;5031410;28;20008;-76
2021/10/07 03:22:08;;;;;;;;;;;;;;;-144.99;100.00;52519.44;5025617;28;20457;-75
2021/10/07 03:24:34;;;;;;;;;;;;;;;-144.99;100.00;52543.91;5034814;28;19981;-75
2021/10/07 03:27:03;;;;;;;;;;;;;;;-144.99;100.00;52541.84;5040583;28;19981;-75
2021/10/07 03:29:30;;;;;;;;;;;;;;;-144.99;100.00;52529.63;5028977;28;19989;-75
2021/10/07 03:31:56;;;;;;;;;;;;;;;-144.99;100.00;52525.56;5028483;28;20352;-75
2021/10/07 03:34:22;;;;;;;;;;;;;;;-144.99;100.00;52533.69;5030682;28;19986;-75
2021/10/07 03:36:50;;;;;;;;;;;;;;;-144.99;100.00;52533.69;5029209;28;19982;-75
2021/10/07 03:39:16;;;;;;;;;;;;;;;-144.99;100.00;52509.25;5025247;28;20371;-74
2021/10/07 03:41:43;;;;;;;;;;;;;;;-144.99;100.00;52531.66;5033412;28;19984;-75
2021/10/07 03:44:09;;;;;;;;;;;;;;;-144.99;100.00;52515.34;5032039;28;20446;-75
2021/10/07 03:46:35;;;;;;;;;;;;;;;-144.99;100.00;52497.00;5026243;28;20107;-75
2021/10/07 03:49:04;;;;;;;;;;;;;;;-144.99;100.00;52505.16;5024677;28;20013;-75
2021/10/07 03:51:31;;;;;;;;;;;;;;;-144.99;100.00;52513.31;5024073;28;19977;-75
2021/10/07 03:53:58;;;;;;;;;;;;;;;-144.99;100.00;52521.47;5022311;28;20449;-75
2021/10/07 03:56:27;;;;;;;;;;;;;;;-144.99;100.00;52554.09;5066800;22;19992;-73
2021/10/07 03:58:53;;;;;;;;;;;;;;;-144.99;100.00;52519.44;5094956;28;19995;-71
2021/10/07 04:01:19;;;;;;;;;;;;;;;-144.99;100.00;52505.16;5100940;28;19980;-72
2021/10/07 04:03:46;;;;;;;;;;;;;;;-144.99;100.00;52505.16;5091615;28;19973;-73
2021/10/07 04:06:12;;;;;;;;;;;;;;;-144.99;100.00;52521.47;5088554;28;19997;-71
2021/10/07 04:08:38;;;;;;;;;;;;;;;-144.99;100.00;52509.25;5089226;28;19992;-71
2021/10/07 04:11:06;;;;;;;;;;;;;;;-144.99;100.00;52541.84;5087739;28;19987;-72
2021/10/07 04:13:32;;;;;;;;;;;;;;;-144.99;100.00;52533.69;5090928;28;19998;-71
2021/10/07 04:15:59;;;;;;;;;;;;;;;-144.99;100.00;52533.69;5080495;28;20457;-71
2021/10/07 04:18:25;;;;;;;;;;;;;;;-144.99;100.00;52521.47;5092655;28;20437;-72
2021/10/07 04:20:51;;;;;;;;;;;;;;;-144.99;100.00;52533.69;5088463;28;19981;-71
2021/10/07 04:23:19;;;;;;;;;;;;;;;-144.99;100.00;52539.81;5099749;28;19989;-74
2021/10/07 04:25:45;;;;;;;;;;;;;;;-144.99;100.00;52490.91;5094167;28;19992;-72
2021/10/07 04:28:13;;;;;;;;;;;;;;;-144.99;100.00;52513.31;5096751;28;20004;-72
2021/10/07 04:30:40;;;;;;;;;;;;;;;-144.99;100.00;52494.97;5090707;28;19973;-72
2021/10/07 04:33:09;;;;;;;;;;;;;;;-144.99;100.00;52515.34;5088597;28;19984;-72
2021/10/07 04:35:36;;;;;;;;;;;;;;;-144.99;100.00;52525.56;5090267;28;20057;-72
2021/10/07 04:38:02;;;;;;;;;;;;;;;-144.99;100.00;52501.09;5088401;28;19985;-72
2021/10/07 04:40:29;;;;;;;;;;;;;;;-144.99;100.00;52525.56;5104279;28;19988;-71
2021/10/07 04:42:55;;;;;;;;;;;;;;;-144.99;100.00;52541.84;5103359;28;19981;-73
2021/10/07 04:45:23;;;;;;;;;;;;;;;-144.99;100.00;52517.41;5102896;28;19973;-73
2021/10/07 04:47:50;;;;;;;;;;;;;;;-144.99;100.00;52566.31;5088117;28;19992;-72
2021/10/07 04:50:16;;;;;;;;;;;;;;;-144.99;100.00;52523.50;5088255;28;19980;-72
2021/10/07 04:52:43;;;;;;;;;;;;;;;-144.99;100.00;52509.25;5085771;28;19992;-72
2021/10/07 04:55:09;;;;;;;;;;;;;;;-144.99;100.00;52474.59;5088453;28;19976;-72
2021/10/07 04:57:36;;;;;;;;;;;;;;;-144.99;100.00;52509.25;5086987;28;20019;-72
2021/10/07 05:00:03;;;;;;;;;;;;;;;-144.99;100.00;52521.47;5086758;28;19988;-73
2021/10/07 05:02:31;;;;;;;;;;;;;;;-144.99;100.00;52476.63;5086102;28;19963;-72
2021/10/07 05:04:57;;;;;;;;;;;;;;;-144.99;100.00;52505.16;5085665;28;19981;-73
2021/10/07 05:07:23;;;;;;;;;;;;;;;-144.99;100.00;52509.25;5088334;28;20393;-74
2021/10/07 05:09:50;;;;;;;;;;;;;;;-144.99;100.00;52501.09;5089385;28;19973;-72
2021/10/07 05:12:18;;;;;;;;;;;;;;;-144.99;100.00;52511.28;5088349;28;19976;-73
2021/10/07 05:14:45;;;;;;;;;;;;;;;-144.99;100.00;52505.16;5087195;28;19972;-74
2021/10/07 05:17:11;;;;;;;;;;;;;;;-144.99;100.00;52484.78;5087066;28;20382;-74
2021/10/07 05:19:38;;;;;;;;;;;;;;;-144.99;100.00;52554.09;5088547;28;19977;-73
2021/10/07 05:22:05;;;;;;;;;;;;;;;-144.99;100.00;52507.19;5087907;28;19983;-72
2021/10/07 05:24:31;;;;;;;;;;;;;;;-144.99;100.00;52499.06;4032125;28;10000725;-75
2021/10/07 05:26:58;;;;;;;;;;;;;;;-144.99;100.00;52517.41;5082925;28;19993;-75
2021/10/07 05:29:24;;;;;;;;;;;;;;;-144.99;100.00;52554.09;5082345;28;20054;-73
2021/10/07 05:31:50;;;;;;;;;;;;;;;-144.99;100.00;52525.56;5084401;28;19973;-75
2021/10/07 05:34:17;;;;;;;;;;;;;;;-144.99;100.00;52541.84;5083241;28;20350;-74
2021/10/07 05:36:45;;;;;;;;;;;;;;;-144.99;100.00;52480.72;5081599;28;20003;-74
2021/10/07 05:39:11;;;;;;;;;;;;;;;-144.99;100.00;52480.72;5087088;28;19987;-74
2021/10/07 05:41:37;;;;;;;;;;;;;;;-144.99;100.00;52505.16;5083388;28;20441;-73
2021/10/07 05:44:08;;;;;;;;;;;;;;;-144.99;100.00;52537.78;5084460;28;19952;-74
2021/10/07 05:46:35;;;;;;;;;;;;;;;-144.99;100.00;52507.19;5083442;28;19988;-74
2021/10/07 05:49:01;;;;;;;;;;;;;;;-144.99;100.00;52505.16;5083328;28;20450;-75
2021/10/07 05:51:27;;;;;;;;;;;;;;;-144.99;100.00;52537.78;5083934;28;20090;-75
2021/10/07 05:53:55;;;;;;;;;;;;;;;-144.99;100.00;52517.41;5083873;28;19980;-74
2021/10/07 05:56:21;;;;;;;;;;;;;;;-144.99;100.00;52537.78;5084737;28;20151;-73
2021/10/07 05:58:48;;;;;;;;;;;;;;;-144.99;100.00;52537.78;5084734;28;19977;-74
2021/10/07 06:01:14;;;;;;;;;;;;;;;-144.99;100.00;52537.78;5082899;28;19973;-74
2021/10/07 06:03:40;;;;;;;;;;;;;;;-144.99;100.00;52513.31;5083793;28;20161;-74
2021/10/07 06:06:07;;;;;;;;;;;;;;;-144.99;100.00;52450.13;5082861;28;20081;-74
2021/10/07 06:08:33;;;;;;;;;;;;;;;-144.99;100.00;52513.31;5085315;28;19996;-74
2021/10/07 06:11:01;;;;;;;;;;;;;;;-144.99;100.00;52480.72;5083736;28;20017;-73
2021/10/07 06:13:27;;;;;;;;;;;;;;;-144.99;100.00;52486.81;5081622;28;20000;-74
2021/10/07 06:15:53;;;;;;;;;;;;;;;-144.99;100.00;52454.22;5084417;28;20153;-74
2021/10/07 06:18:20;;;;;;;;;;;;;;;-144.99;100.00;52527.59;5085390;28;19988;-74
2021/10/07 06:20:47;;;;;;;;;;;;;;;-144.99;100.00;52484.78;5090795;28;19976;-74
2021/10/07 06:23:13;;;;;;;;;;;;;;;-144.99;99.45;52505.16;5097794;28;19980;-75
2021/10/07 06:25:39;;;;;;;;;;;;;;;-144.99;98.77;52484.78;5083866;28;20289;-75
2021/10/07 06:28:08;;;;;;;;;;;;;;;-144.99;98.66;52468.47;5081445;28;20058;-72
2021/10/07 06:30:34;;;;;;;;;;;;;;;-144.99;98.57;52488.84;5079802;28;20046;-73
2021/10/07 06:33:01;;;;;;;;;;;;;;;-144.99;98.39;52505.16;5081976;28;19984;-74
2021/10/07 06:35:28;;;;;;;;;;;;;;;-144.99;98.08;52482.75;5077605;28;20705;-73
2021/10/07 06:37:54;;;;;;;;;;;;;;;-144.99;98.02;52484.78;5083153;28;20365;-74
2021/10/07 06:40:21;;;;;;;;;;;;;;;-144.99;98.14;52525.56;5084352;28;20365;-74
2021/10/07 06:42:47;;;;;;;;;;;;;;;-144.99;97.95;52472.56;5097072;28;20156;-75
2021/10/07 06:45:15;;;;;;;;;;;;;;;-144.99;97.54;52484.78;5101909;28;19977;-75
2021/10/07 06:47:42;;;;;;;;;;;;;;;-144.99;97.24;52458.28;5092932;28;20046;-73
2021/10/07 06:50:09;;;;;;;;;;;;;;;-144.99;96.71;52484.78;5084419;28;20038;-75
2021/10/07 06:52:37;;;;;;;;;;;;;;;-144.99;95.41;52488.84;5086985;28;19976;-73
2021/10/07 06:55:03;;;;;;;;;;;;;;;-144.99;94.72;52466.44;5087630;28;20524;-74
2021/10/07 06:57:30;;;;;;;;;;;;;;;-144.99;94.39;52488.84;5086276;28;20486;-74
2021/10/07 06:59:56;;;;;;;;;;;;;;;-144.99;93.68;52439.94;5088154;28;19983;-75
2021/10/07 07:02:24;;;;;;;;;;;;;;;-144.99;93.41;52472.56;5084864;28;19963;-75
2021/10/07 07:04:50;;;;;;;;;;;;;;;-144.99;92.80;52476.63;5081800;28;20539;-75
2021/10/07 07:07:16;;;;;;;;;;;;;;;-144.99;91.89;52497.00;5086386;28;20501;-75
2021/10/07 07:09:44;;;;;;;;;;;;;;;-144.99;91.41;52433.81;5086944;28;19992;-74
2021/10/07 07:12:10;;;;;;;;;;;;;;;-144.99;91.29;52446.06;5086132;28;20541;-75
2021/10/07 07:14:37;;;;;;;;;;;;;;;-144.99;90.74;52458.28;5082852;28;19977;-74
2021/10/07 07:17:03;;;;;;;;;;;;;;;-144.99;89.57;52429.75;5088212;28;20478;-74
2021/10/07 07:19:31;;;;;;;;;;;;;;;-144.99;88.66;52439.94;5082694;28;19981;-75
2021/10/07 07:21:57;;;;;;;;;;;;;;;-144.99;88.08;52476.63;5081371;28;20039;-74
2021/10/07 07:24:23;;;;;;;;;;;;;;;-144.99;87.58;52435.88;5089370;28;19985;-73
2021/10/07 07:26:50;;;;;;;;;;;;;;;-144.99;86.04;52433.81;5082187;28;19982;-73
2021/10/07 07:29:16;;;;;;;;;;;;;;;-144.99;85.91;52441.97;5089439;28;19992;-73
2021/10/07 07:31:44;;;;;;;;;;;;;;;-144.99;85.88;52423.63;5088249;28;19976;-73
2021/10/07 07:34:10;;;;;;;;;;;;;;;-144.99;85.37;52439.94;5080617;28;20447;-74
2021/10/07 07:36:38;;;;;;;;;;;;;;;-144.99;84.86;52419.56;5083878;28;19996;-75
2021/10/07 07:39:04;;;;;;;;;;;;;;;-144.99;83.42;52444.03;5083661;28;19980;-74
2021/10/07 07:41:31;;;;;;;;;;;;;;;-144.99;82.81;52439.94;5085760;28;20391;-74
2021/10/07 07:43:57;;;;;;;;;;;;;;;-144.99;82.03;52431.78;5084571;28;19988;-74
2021/10/07 07:46:23;;;;;;;;;;;;;;;-144.99;82.05;52452.16;5084000;28;20004;-75
2021/10/07 07:48:50;;;;;;;;;;;;;;;-144.99;80.73;52391.03;5085189;28;20433;-73
2021/10/07 07:51:16;;;;;;;;;;;;;;;-144.99;80.94;52399.19;5085355;28;19984;-74
2021/10/07 07:53:44;;;;;;;;;;;;;;;-144.99;80.54;52427.72;5081812;28;19976;-74
2021/10/07 07:56:10;;;;;;;;;;;;;;;-144.99;79.97;52409.38;5083580;28;20007;-74
2021/10/07 07:58:36;;;;;;;;;;;;;;;-144.99;79.71;52423.63;5083244;28;20333;-75
2021/10/07 08:01:03;;;;;;;;;;;;;;;-144.99;79.27;52391.03;5082977;28;19995;-74
2021/10/07 08:03:31;;;;;;;;;;;;;;;-144.99;79.35;52411.41;5084708;28;19985;-74
2021/10/07 08:05:57;;;;;;;;;;;;;;;-144.99;79.32;52386.94;5081949;28;20063;-74
2021/10/07 08:08:24;;;;;;;;;;;;;;;-144.99;79.25;52393.06;5085266;28;19976;-75
2021/10/07 08:10:51;;;;;;;;;;;;;;;-144.99;78.79;52403.25;5085033;28;19981;-75
2021/10/07 08:13:19;;;;;;;;;;;;;;;-144.99;78.23;52382.88;5084531;28;19983;-74
2021/10/07 08:15:45;;;;;;;;;;;;;;;-144.99;77.25;52435.88;5082426;28;19989;-73
2021/10/07 08:18:13;;;;;;;;;;;;;;;-144.99;76.18;52354.34;5085793;28;20291;-75
2021/10/07 08:20:40;;;;;;;;;;;;;;;-144.99;75.63;52391.03;5081668;28;19980;-74
2021/10/07 08:23:07;;;;;;;;;;;;;;;-144.99;75.58;52419.56;5083928;28;19991;-75
2021/10/07 08:25:33;;;;;;;;;;;;;;;-144.99;74.36;52415.47;5082786;28;20003;-75
2021/10/07 08:28:01;;;;;;;;;;;;;;;-144.99;73.92;52407.31;5082023;28;19984;-76
2021/10/07 08:30:27;;;;;;;;;;;;;;;-144.99;73.34;52427.72;5084546;28;19993;-76
2021/10/07 08:32:54;;;;;;;;;;;;;;;-144.99;72.48;52391.03;5083473;28;20030;-76
2021/10/07 08:35:20;;;;;;;;;;;;;;;-144.99;71.90;52388.97;5083514;28;19981;-76
2021/10/07 08:37:47;;;;;;;;;;;;;;;-144.99;70.80;52395.09;5083496;28;19973;-76
2021/10/07 08:40:15;;;;;;;;;;;;;;;-144.99;70.23;52382.88;5084194;28;19987;-76
2021/10/07 08:42:42;;;;;;;;;;;;;;;-144.99;69.52;52382.88;5079197;28;19977;-76
2021/10/07 08:45:11;;;;;;;;;;;;;;;-144.99;67.88;52366.56;5083534;28;20327;-74
2021/10/07 08:47:38;;;;;;;;;;;;;;;-144.99;66.15;52362.50;5085280;28;19979;-75
2021/10/07 08:50:05;;;;;;;;;;;;;;;-144.99;66.44;52354.34;5083287;28;19996;-75
2021/10/07 08:52:31;;;;;;;;;;;;;;;-144.99;65.95;52346.19;5084763;28;21383;-74
2021/10/07 08:54:57;;;;;;;;;;;;;;;-144.99;65.33;52336.00;5082135;28;19992;-76
2021/10/07 08:57:23;;;;;;;;;;;;;;;-144.99;64.92;52372.69;5085304;28;20374;-76
2021/10/07 08:59:50;;;;;;;;;;;;;;;-144.99;63.60;52321.72;5085505;28;19975;-75
2021/10/07 09:02:25;;;;;;;;;;;;;;;-144.99;62.80;52342.09;5090206;28;19981;-76
2021/10/07 09:04:52;;;;;;;;;;;;;;;-144.99;61.04;52321.72;5094766;28;19976;-75
2021/10/07 09:07:18;;;;;;;;;;;;;;;-144.99;60.84;52329.88;5085813;28;20516;-77
2021/10/07 09:09:45;;;;;;;;;;;;;;;-144.99;60.05;52317.66;5085053;28;20373;-75
2021/10/07 09:12:12;;;;;;;;;;;;;;;-144.99;59.69;52293.19;5085903;28;20067;-75
2021/10/07 09:14:40;;;;;;;;;;;;;;;-144.99;58.72;52280.97;5084456;28;19979;-76
2021/10/07 09:17:08;;;;;;;;;;;;;;;-144.99;58.42;52289.13;5090919;28;20003;-77
2021/10/07 09:19:39;;;;;;;;;;;;;;;-144.99;58.73;52313.56;5084342;28;19972;-76
2021/10/07 09:22:13;;;;;;;;;;;;;;;-144.99;58.36;52325.81;5083969;28;19981;-75
2021/10/07 09:24:41;;;;;;;;;;;;;;;-144.99;57.64;52305.41;5082354;28;19979;-77
2021/10/07 09:27:10;;;;;;;;;;;;;;;-144.99;56.71;52307.47;5082847;28;20291;-76
2021/10/07 09:29:41;;;;;;;;;;;;;;;-144.99;56.99;52329.88;5085263;28;19992;-75
2021/10/07 09:32:07;;;;;;;;;;;;;;;-144.99;56.41;52285.03;5079882;28;19980;-75
2021/10/07 09:34:39;;;;;;;;;;;;;;;-144.99;56.04;52305.41;5082647;28;20011;-76
2021/10/07 09:37:18;;;;;;;;;;;;;;;-144.99;55.24;52270.78;5083864;28;20000;-75
2021/10/07 09:39:47;;;;;;;;;;;;;;;-144.99;54.68;52299.31;5086333;28;19983;-77
2021/10/07 09:42:16;;;;;;;;;;;;;;;-144.99;53.98;52248.34;5086847;28;20243;-76
2021/10/07 09:44:56;;;;;;;;;;;;;;;-144.99;53.48;52285.03;5085863;28;20357;-75
2021/10/07 09:47:27;;;;;;;;;;;;;;;-144.99;52.80;52285.03;5082079;28;20002;-75
2021/10/07 09:50:09;;;;;;;;;;;;;;;-144.99;51.45;52252.44;5085467;28;20096;-75
2021/10/07 09:52:36;;;;;;;;;;;;;;;-144.99;50.66;52264.66;5085335;28;20059;-74
2021/10/07 09:55:07;;;;;;;;;;;;;;;-144.99;50.96;52268.72;5085273;28;19977;-75
2021/10/07 09:57:34;;;;;;;;;;;;;;;-144.99;51.81;52248.34;5081037;28;19977;-77
2021/10/07 10:00:01;;;;;;;;;;;;;;;-144.99;50.72;52199.44;5085817;28;19983;-75
2021/10/07 10:02:28;;;;;;;;;;;;;;;-144.99;49.95;52232.03;5084524;28;19981;-74
2021/10/07 10:04:57;;;;;;;;;;;;;;;-144.99;49.26;52223.88;5082689;28;20116;-75
2021/10/07 10:07:24;;;;;;;;;;;;;;;-144.99;48.64;52207.59;5082199;28;19993;-74
2021/10/07 10:09:50;;;;;;;;;;;;;;;-144.99;47.08;52227.97;5084286;28;20010;-74
2021/10/07 10:12:17;;;;;;;;;;;;;;;-144.99;46.86;52223.88;5082301;28;20034;-76
2021/10/07 10:14:43;;;;;;;;;;;;;;;-144.99;47.48;52223.88;5083878;28;20600;-75
2021/10/07 10:17:11;;;;;;;;;;;;;;;-144.99;47.64;52195.34;5080780;28;20045;-74
2021/10/07 10:19:37;;;;;;;;;;;;;;;-144.99;46.66;52170.91;5084957;28;19964;-76
2021/10/07 10:22:07;;;;;;;;;;;;;;;-144.99;45.48;52174.97;5082173;28;20004;-74
2021/10/07 10:24:34;;;;;;;;;;;;;;;-144.99;44.26;52089.38;5082851;28;19984;-77
2021/10/07 10:27:01;;;;;;;;;;;;;;;-144.99;44.71;52154.59;5085568;28;20154;-76
2021/10/07 10:29:30;;;;;;;;;;;;;;;-144.99;44.39;52105.69;5087216;28;20330;-75
2021/10/07 10:31:56;;;;;;;;;;;;;;;-144.99;43.73;52085.31;5089021;28;19980;-75
2021/10/07 10:34:23;;;;;;;;;;;;;;;-144.99;43.09;52113.84;5087794;28;19956;-75
2021/10/07 10:36:51;;;;;;;;;;;;;;;-144.99;42.22;52085.31;5087898;28;20001;-75
2021/10/07 10:39:20;;;;;;;;;;;;;;;-144.99;42.27;52115.88;5089050;28;19995;-74
2021/10/07 10:41:48;;;;;;;;;;;;;;;-144.99;41.56;52073.06;5087857;28;19984;-74
2021/10/07 10:44:29;;;;;;;;;;;;;;;-144.99;40.87;52060.84;5089341;28;19977;-77
2021/10/07 10:46:58;;;;;;;;;;;;;;;-144.99;41.09;52089.38;5079404;28;20004;-75
2021/10/07 10:49:37;;;;;;;;;;;;;;;-144.99;40.89;52069.00;5089967;28;19984;-75
2021/10/07 10:52:11;;;;;;;;;;;;;;;-144.99;40.39;52052.69;5088819;28;19987;-76
2021/10/07 10:54:42;;;;;;;;;;;;;;;-144.99;38.90;52044.53;5089338;28;20045;-75
2021/10/07 10:57:08;;;;;;;;;;;;;;;-144.99;39.00;51971.16;5088126;28;20000;-76
2021/10/07 10:59:37;;;;;;;;;;;;;;;-144.99;39.17;52028.22;5089271;28;20331;-76
2021/10/07 11:02:24;;;;;;;;;;;;;;;-144.99;39.59;52083.25;5084118;28;19992;-76
2021/10/07 11:04:51;;;;;;;;;;;;;;;-144.99;40.55;52270.78;5074601;28;19979;-76
2021/10/07 11:07:18;;;;;;;;;;;;;;;-144.99;43.06;52285.03;5087104;28;20008;-75
2021/10/07 11:10:05;;;;;;;;;;;;;;;-144.99;44.38;52193.31;5089045;28;20046;-76
2021/10/07 11:12:46;;;;;;;;;;;;;;;-144.99;44.65;52146.44;5083606;28;19983;-75
2021/10/07 11:15:12;;;;;;;;;;;;;;;-144.99;42.44;52089.38;5088523;28;19983;-75
2021/10/07 11:17:39;;;;;;;;;;;;;;;-144.99;41.67;52073.06;5089115;28;19980;-76
2021/10/07 11:20:06;;;;;;;;;;;;;;;-144.99;40.44;52032.31;5089377;28;20458;-75
2021/10/07 11:22:33;;;;;;;;;;;;;;;-144.99;39.74;52040.47;5088339;28;20384;-76
2021/10/07 11:24:59;;;;;;;;;;;;;;;-144.99;39.09;52032.31;5088959;28;20399;-76
2021/10/07 11:27:34;;;;;;;;;;;;;;;-144.99;39.72;52268.72;5088482;28;20464;-76
2021/10/07 11:30:02;;;;;;;;;;;;;;;-144.99;41.18;52130.13;5088697;28;19999;-76
2021/10/07 11:32:29;;;;;;;;;;;;;;;-144.99;41.66;52064.91;5091370;28;19985;-76
2021/10/07 11:34:59;;;;;;;;;;;;;;;-144.99;40.62;52034.34;5091210;28;19976;-76
2021/10/07 11:37:26;;;;;;;;;;;;;;;-144.99;38.88;52036.38;5092637;28;20010;-76
2021/10/07 11:40:07;;;;;;;;;;;;;;;-144.99;37.09;51977.28;5090511;28;19976;-76
2021/10/07 11:42:37;;;;;;;;;;;;;;;-144.99;37.70;51999.69;5090397;28;20482;-76
2021/10/07 11:45:18;;;;;;;;;;;;;;;-144.99;36.34;51975.25;5087875;28;19981;-75
2021/10/07 11:47:44;;;;;;;;;;;;;;;-144.99;36.43;52022.13;5088322;28;19962;-75
2021/10/07 11:50:11;;;;;;;;;;;;;;;-144.99;37.20;52028.22;5089095;28;20371;-75
2021/10/07 11:52:38;;;;;;;;;;;;;;;-144.99;37.16;51999.69;5085681;28;19981;-75
2021/10/07 11:55:04;;;;;;;;;;;;;;;-144.99;36.94;52081.22;5092783;28;20006;-76
2021/10/07 11:57:31;;;;;;;;;;;;;;;-144.99;36.70;52128.09;5095487;28;20342;-75
2021/10/07 11:59:57;;;;;;;;;;;;;;;-144.99;36.77;51975.25;5092554;28;19985;-75
2021/10/07 12:02:25;;;;;;;;;;;;;;;-144.99;36.59;52079.19;5090794;28;19977;-76
2021/10/07 12:04:51;;;;;;;;;;;;;;;-144.99;36.70;52187.19;5091875;28;19999;-75
2021/10/07 12:07:17;;;;;;;;;;;;;;;-144.99;39.52;52297.25;5092043;28;20001;-75
2021/10/07 12:09:44;;;;;;;;;;;;;;;-144.99;40.97;52285.03;5093362;28;19980;-75
2021/10/07 12:12:10;;;;;;;;;;;;;;;-144.99;41.64;52319.69;5088808;28;19975;-75
2021/10/07 12:14:41;;;;;;;;;;;;;;;-144.99;41.82;52297.25;5092660;28;20452;-75
2021/10/07 12:17:07;;;;;;;;;;;;;;;-144.99;43.08;52280.97;5093820;28;20035;-75
2021/10/07 12:19:35;;;;;;;;;;;;;;;-144.99;42.99;52301.34;5093314;28;19980;-75
2021/10/07 12:22:03;;;;;;;;;;;;;;;-144.99;42.06;52109.75;5091902;28;20402;-75
2021/10/07 12:24:30;;;;;;;;;;;;;;;-144.99;40.80;52097.53;5084570;28;19983;-74